createdAt,value
2022-11-24T00:02:24.299Z,4.47
2022-11-24T00:04:50.854Z,4.46
2022-11-24T00:07:17.260Z,4.56
2022-11-24T00:09:43.657Z,4.57
2022-11-24T00:12:10.162Z,4.62
2022-11-24T00:14:36.671Z,4.66
2022-11-24T00:17:03.204Z,4.68
2022-11-24T00:19:29.838Z,4.70
2022-11-24T00:21:56.255Z,4.79
2022-11-24T00:24:22.678Z,4.83
2022-11-24T00:26:49.089Z,4.84
2022-11-24T00:29:15.520Z,4.87
2022-11-24T00:31:42.727Z,4.88
2022-11-24T00:34:14.087Z,4.88
2022-11-24T00:36:41.947Z,4.90
2022-11-24T00:39:11.936Z,4.94
2022-11-24T00:41:38.595Z,4.92
2022-11-24T00:44:05.367Z,4.96
2022-11-24T00:46:31.871Z,4.97
2022-11-24T00:49:00.361Z,4.94
2022-11-24T00:51:29.687Z,4.94
2022-11-24T00:53:59.563Z,4.96
2022-11-24T00:56:27.438Z,4.97
2022-11-24T00:58:54.182Z,5.01
2022-11-24T01:01:23.821Z,5.01
2022-11-24T01:03:51.054Z,5.06
2022-11-24T01:06:20.496Z,5.07
2022-11-24T01:08:47.499Z,5.07
2022-11-24T01:11:15.105Z,5.11
2022-11-24T01:13:43.698Z,5.12
2022-11-24T01:16:19.860Z,5.17
2022-11-24T01:18:46.990Z,5.14
2022-11-24T01:21:14.243Z,5.17
2022-11-24T01:23:40.729Z,5.19
2022-11-24T01:26:09.320Z,5.17
2022-11-24T01:28:37.026Z,5.15
2022-11-24T01:31:07.010Z,5.15
2022-11-24T01:33:34.737Z,5.19
2022-11-24T01:36:01.706Z,5.16
2022-11-24T01:38:28.497Z,5.17
2022-11-24T01:41:08.031Z,5.16
2022-11-24T01:43:34.777Z,5.18
2022-11-24T01:46:40.232Z,5.20
2022-11-24T01:49:24.543Z,5.20
2022-11-24T01:52:08.732Z,5.20
2022-11-24T01:54:43.842Z,5.23
2022-11-24T01:57:17.256Z,5.22
2022-11-24T01:59:46.858Z,5.22
2022-11-24T02:02:14.449Z,5.24
2022-11-24T02:04:41.986Z,5.26
2022-11-24T02:07:08.827Z,5.28
2022-11-24T02:09:48.042Z,5.28
2022-11-24T02:12:14.446Z,5.28
2022-11-24T02:14:43.438Z,5.27
2022-11-24T02:17:12.875Z,5.28
2022-11-24T02:19:57.554Z,5.27
2022-11-24T02:23:00.894Z,5.23
2022-11-24T02:25:42.572Z,5.22
2022-11-24T02:28:12.425Z,5.21
2022-11-24T02:30:39.439Z,5.21
2022-11-24T02:33:05.862Z,5.20
2022-11-24T02:35:33.248Z,5.21
2022-11-24T02:37:59.611Z,5.21
2022-11-24T02:40:30.909Z,5.24
2022-11-24T02:43:20.368Z,5.25
2022-11-24T02:45:47.216Z,5.25
2022-11-24T02:48:15.300Z,5.24
2022-11-24T02:50:41.793Z,5.23
2022-11-24T02:53:08.246Z,5.24
2022-11-24T02:55:34.676Z,5.26
2022-11-24T02:58:01.130Z,5.27
2022-11-24T03:00:29.976Z,5.29
2022-11-24T03:02:56.490Z,5.34
2022-11-24T03:05:22.978Z,5.40
2022-11-24T03:07:49.486Z,5.46
2022-11-24T03:10:16.319Z,5.49
2022-11-24T03:12:42.742Z,5.51
2022-11-24T03:15:09.621Z,5.54
2022-11-24T03:17:36.042Z,5.55
2022-11-24T03:20:04.816Z,5.58
2022-11-24T03:22:31.796Z,5.64
2022-11-24T03:24:58.281Z,5.64
2022-11-24T03:27:24.727Z,5.64
2022-11-24T03:29:53.490Z,5.65
2022-11-24T03:32:19.858Z,5.66
2022-11-24T03:34:47.422Z,5.68
2022-11-24T03:37:13.855Z,5.73
2022-11-24T03:39:40.298Z,5.79
2022-11-24T03:42:06.732Z,5.77
2022-11-24T03:44:33.459Z,5.81
2022-11-24T03:47:00.041Z,5.82
2022-11-24T03:49:26.580Z,5.81
2022-11-24T03:51:53.090Z,5.83
2022-11-24T03:54:19.468Z,5.82
2022-11-24T03:56:45.914Z,5.87
2022-11-24T03:59:12.320Z,5.86
2022-11-24T04:01:38.870Z,5.90
2022-11-24T04:04:05.471Z,5.87
2022-11-24T04:06:31.978Z,5.88
2022-11-24T04:09:00.477Z,5.87
2022-11-24T04:11:45.565Z,5.88
2022-11-24T04:14:13.797Z,5.94
2022-11-24T04:16:40.620Z,5.93
2022-11-24T04:19:07.209Z,6.00
2022-11-24T04:21:33.633Z,6.04
2022-11-24T04:24:00.040Z,6.05
2022-11-24T04:26:27.787Z,6.09
2022-11-24T04:28:54.203Z,6.12
2022-11-24T04:31:20.666Z,6.10
2022-11-24T04:33:47.295Z,6.13
2022-11-24T04:36:13.867Z,6.18
2022-11-24T04:39:25.775Z,6.18
2022-11-24T04:41:26.597Z,6.21
2022-11-24T04:43:52.996Z,6.23
2022-11-24T04:46:19.590Z,6.24
2022-11-24T04:48:46.057Z,6.24
2022-11-24T04:51:14.747Z,6.29
2022-11-24T04:53:41.316Z,6.29
2022-11-24T04:56:08.238Z,6.28
2022-11-24T04:58:34.861Z,6.32
2022-11-24T05:01:01.350Z,6.30
2022-11-24T05:03:27.865Z,6.33
2022-11-24T05:05:54.261Z,6.34
2022-11-24T05:08:20.724Z,6.35
2022-11-24T05:10:47.104Z,6.35
2022-11-24T05:13:13.882Z,6.37
2022-11-24T05:15:41.890Z,6.36
2022-11-24T05:18:12.370Z,6.41
2022-11-24T05:20:39.246Z,6.45
2022-11-24T05:23:08.276Z,6.47
2022-11-24T05:25:35.749Z,6.51
2022-11-24T05:28:04.019Z,6.54
2022-11-24T05:30:31.533Z,6.55
2022-11-24T05:32:58.301Z,6.55
2022-11-24T05:35:24.959Z,6.58
2022-11-24T05:37:52.505Z,6.54
2022-11-24T05:40:21.480Z,6.58
2022-11-24T05:42:48.409Z,6.63
2022-11-24T05:45:20.181Z,6.58
2022-11-24T05:47:47.654Z,6.58
2022-11-24T05:50:15.943Z,6.60
2022-11-24T05:52:42.433Z,6.55
2022-11-24T05:55:09.951Z,6.54
2022-11-24T05:57:37.885Z,6.52
2022-11-24T06:00:06.891Z,6.48
2022-11-24T06:02:33.525Z,6.47
2022-11-24T06:05:00.075Z,6.42
2022-11-24T06:07:26.720Z,6.44
2022-11-24T06:09:53.200Z,6.37
2022-11-24T06:12:20.378Z,6.41
2022-11-24T06:14:46.781Z,6.39
2022-11-24T06:17:13.331Z,6.38
2022-11-24T06:19:42.056Z,6.42
2022-11-24T06:22:09.016Z,6.43
2022-11-24T06:24:35.852Z,6.40
2022-11-24T06:27:05.189Z,6.40
2022-11-24T06:29:31.579Z,6.37
2022-11-24T06:31:58.014Z,6.34
2022-11-24T06:34:24.433Z,6.32
2022-11-24T06:36:50.808Z,6.28
2022-11-24T06:39:17.229Z,6.25
2022-11-24T06:41:43.620Z,6.24
2022-11-24T06:44:10.154Z,6.18
2022-11-24T06:46:36.656Z,6.15
2022-11-24T06:49:03.290Z,6.17
2022-11-24T06:51:29.732Z,6.12
2022-11-24T06:53:56.298Z,6.08
2022-11-24T06:56:23.026Z,6.10
2022-11-24T06:58:51.811Z,6.11
2022-11-24T07:01:19.503Z,6.12
2022-11-24T07:03:48.046Z,6.11
2022-11-24T07:06:15.195Z,6.16
2022-11-24T07:08:44.124Z,6.16
2022-11-24T07:11:15.421Z,6.21
2022-11-24T07:13:42.777Z,6.24
2022-11-24T07:16:23.818Z,6.29
2022-11-24T07:18:51.597Z,6.30
2022-11-24T07:21:20.243Z,6.34
2022-11-24T07:23:54.592Z,6.35
2022-11-24T07:26:22.441Z,6.41
2022-11-24T07:28:49.403Z,6.42
2022-11-24T07:31:23.893Z,6.45
2022-11-24T07:33:52.516Z,6.46
2022-11-24T07:36:19.288Z,6.46
2022-11-24T07:38:45.938Z,6.46
2022-11-24T07:41:17.914Z,6.50
2022-11-24T07:43:44.314Z,6.51
2022-11-24T07:46:14.844Z,6.55
2022-11-24T07:48:41.258Z,6.66
2022-11-24T07:51:11.037Z,6.75
2022-11-24T07:53:38.139Z,6.93
2022-11-24T07:56:06.208Z,7.21
2022-11-24T07:58:35.976Z,7.44
2022-11-24T08:01:11.361Z,7.71
2022-11-24T08:03:38.351Z,7.78
2022-11-24T08:08:51.355Z,7.81
2022-11-24T08:11:18.285Z,7.78
2022-11-24T08:13:45.018Z,7.86
2022-11-24T08:16:17.186Z,7.94
2022-11-24T08:18:44.693Z,8.10
2022-11-24T08:21:13.830Z,8.28
2022-11-24T08:23:40.552Z,8.40
2022-11-24T08:26:10.637Z,8.51
2022-11-24T08:28:38.178Z,8.52
2022-11-24T08:31:07.413Z,8.53
2022-11-24T08:33:34.150Z,8.43
2022-11-24T08:36:09.360Z,8.30
2022-11-24T08:38:36.343Z,8.21
2022-11-24T08:41:08.405Z,8.19
2022-11-24T08:43:35.503Z,8.20
2022-11-24T08:46:04.109Z,8.28
2022-11-24T08:48:32.805Z,8.30
2022-11-24T08:50:59.797Z,8.47
2022-11-24T08:53:26.213Z,8.54
2022-11-24T08:55:52.603Z,8.65
2022-11-24T08:58:19.177Z,8.80
2022-11-24T09:00:45.576Z,8.86
2022-11-24T09:03:12.154Z,8.95
2022-11-24T09:05:54.185Z,9.18
2022-11-24T09:08:20.750Z,9.15
2022-11-24T09:10:49.093Z,9.19
2022-11-24T09:13:15.501Z,9.04
2022-11-24T09:15:41.901Z,9.02
2022-11-24T09:18:11.199Z,9.00
2022-11-24T09:20:37.598Z,9.16
2022-11-24T09:23:04.015Z,9.15
2022-11-24T09:25:30.394Z,9.13
2022-11-24T09:27:57.336Z,8.87
2022-11-24T09:30:23.715Z,8.83
2022-11-24T09:32:50.172Z,8.84
2022-11-24T09:35:16.645Z,8.75
2022-11-24T09:37:45.095Z,8.66
2022-11-24T09:40:16.406Z,8.51
2022-11-24T09:42:53.739Z,8.42
2022-11-24T09:46:06.061Z,8.37
2022-11-24T09:48:41.362Z,8.37
2022-11-24T09:51:12.544Z,8.25
2022-11-24T09:53:52.169Z,8.20
2022-11-24T09:56:46.358Z,8.17
2022-11-24T09:59:18.788Z,8.08
2022-11-24T10:01:47.479Z,8.13
2022-11-24T10:04:29.651Z,8.05
2022-11-24T10:06:58.961Z,8.09
2022-11-24T10:09:47.246Z,8.05
2022-11-24T10:12:22.813Z,8.09
2022-11-24T10:15:03.965Z,8.06
2022-11-24T10:17:59.119Z,8.11
2022-11-24T10:20:42.249Z,8.13
2022-11-24T10:23:40.866Z,8.19
2022-11-24T10:26:31.874Z,8.16
2022-11-24T10:28:58.300Z,8.21
2022-11-24T10:31:33.351Z,8.23
2022-11-24T10:34:26.004Z,8.18
2022-11-24T10:36:58.360Z,8.14
2022-11-24T10:39:37.600Z,8.05
2022-11-24T10:42:37.008Z,8.07
2022-11-24T10:45:10.931Z,8.04
2022-11-24T10:47:38.348Z,7.98
2022-11-24T10:50:27.345Z,7.96
2022-11-24T10:53:08.762Z,7.98
2022-11-24T10:55:56.963Z,7.86
2022-11-24T10:58:38.569Z,7.74
2022-11-24T11:01:14.040Z,7.70
2022-11-24T11:03:59.827Z,7.73
2022-11-24T11:06:32.340Z,7.74
2022-11-24T11:09:07.972Z,7.69
2022-11-24T11:11:36.026Z,7.72
2022-11-24T11:14:07.532Z,7.70
2022-11-24T11:16:38.596Z,7.77
2022-11-24T11:19:58.692Z,7.78
2022-11-24T11:22:28.625Z,7.79
2022-11-24T11:25:15.631Z,7.78
2022-11-24T11:27:42.237Z,7.80
2022-11-24T11:36:11.228Z,7.78
2022-11-24T11:38:39.274Z,7.82
2022-11-24T11:41:10.767Z,7.86
2022-11-24T11:43:41.023Z,7.83
2022-11-24T11:46:13.853Z,7.87
2022-11-24T11:48:44.762Z,7.86
2022-11-24T11:51:26.917Z,7.85
2022-11-24T11:54:20.376Z,7.93
2022-11-24T11:57:05.133Z,7.98
2022-11-24T12:00:03.919Z,7.99
2022-11-24T12:02:55.233Z,8.04
2022-11-24T12:05:35.219Z,8.04
2022-11-24T12:08:27.078Z,8.10
2022-11-24T12:11:08.757Z,8.15
2022-11-24T12:13:45.355Z,8.22
2022-11-24T12:16:27.829Z,8.22
2022-11-24T12:19:15.650Z,8.22
2022-11-24T12:22:05.894Z,8.28
2022-11-24T12:24:41.506Z,8.38
2022-11-24T12:27:24.582Z,8.48
2022-11-24T12:30:00.984Z,8.57
2022-11-24T12:32:36.305Z,8.71
2022-11-24T12:35:05.950Z,8.80
2022-11-24T12:38:00.384Z,8.83
2022-11-24T12:41:33.693Z,9.04
2022-11-24T12:43:59.348Z,9.20
2022-11-24T12:46:39.472Z,9.26
2022-11-24T12:49:14.733Z,9.34
2022-11-24T12:51:51.261Z,9.44
2022-11-24T12:54:20.768Z,9.40
2022-11-24T12:57:07.388Z,9.30
2022-11-24T12:59:43.802Z,9.24
2022-11-24T13:02:31.569Z,9.19
2022-11-24T13:05:31.799Z,9.21
2022-11-24T13:08:02.796Z,9.16
2022-11-24T13:10:54.798Z,9.05
2022-11-24T13:13:19.624Z,8.97
2022-11-24T13:18:56.827Z,8.75
2022-11-24T13:21:47.057Z,8.67
2022-11-24T13:27:12.273Z,8.63
2022-11-24T13:29:40.187Z,8.65
2022-11-24T13:32:06.511Z,8.68
2022-11-24T13:34:39.043Z,8.59
2022-11-24T13:37:32.103Z,8.60
2022-11-24T13:40:11.432Z,8.72
2022-11-24T13:42:56.271Z,8.71
2022-11-24T13:45:49.194Z,8.63
2022-11-24T13:48:22.135Z,8.59
2022-11-24T13:50:54.747Z,8.58
2022-11-24T13:53:27.235Z,8.52
2022-11-24T13:56:03.201Z,8.46
2022-11-24T13:58:36.177Z,8.39
2022-11-24T14:01:06.750Z,8.36
2022-11-24T14:03:36.867Z,8.35
2022-11-24T14:06:03.795Z,8.37
2022-11-24T14:08:37.562Z,8.32
2022-11-24T14:11:12.623Z,8.28
2022-11-24T14:13:39.021Z,8.28
2022-11-24T14:16:06.873Z,8.26
2022-11-24T14:18:34.946Z,8.19
2022-11-24T14:21:33.381Z,8.21
2022-11-24T14:24:08.663Z,8.17
2022-11-24T14:26:38.113Z,8.13
2022-11-24T14:29:16.791Z,8.11
2022-11-24T14:31:59.915Z,8.06
2022-11-24T14:34:29.361Z,8.04
2022-11-24T14:36:57.542Z,8.01
2022-11-24T14:39:25.960Z,7.98
2022-11-24T14:42:00.668Z,7.95
2022-11-24T14:44:29.665Z,7.93
2022-11-24T14:47:12.933Z,7.92
2022-11-24T14:49:41.833Z,7.90
2022-11-24T14:52:18.078Z,7.84
2022-11-24T14:54:53.661Z,7.86
2022-11-24T14:57:23.610Z,7.84
2022-11-24T15:00:12.005Z,7.78
2022-11-24T15:02:46.221Z,7.78
2022-11-24T15:05:13.486Z,7.75
2022-11-24T15:07:43.759Z,7.76
2022-11-24T15:10:33.906Z,7.74
2022-11-24T15:13:02.903Z,7.77
2022-11-24T15:15:36.616Z,7.73
2022-11-24T15:18:05.365Z,7.68
2022-11-24T15:20:45.568Z,7.66
2022-11-24T15:23:20.750Z,7.63
2022-11-24T15:25:47.719Z,7.59
2022-11-24T15:28:14.386Z,7.50
2022-11-24T15:30:41.013Z,7.43
2022-11-24T15:33:18.788Z,7.35
2022-11-24T15:35:46.369Z,7.29
2022-11-24T15:38:13.148Z,7.28
2022-11-24T15:40:41.921Z,7.21
2022-11-24T15:43:19.842Z,7.17
2022-11-24T15:45:46.379Z,7.13
2022-11-24T15:48:17.664Z,7.13
2022-11-24T15:50:45.938Z,7.09
2022-11-24T15:53:34.687Z,7.08
2022-11-24T15:56:03.446Z,7.06
2022-11-24T15:58:29.883Z,7.07
2022-11-24T16:00:56.534Z,7.06
2022-11-24T16:06:19.075Z,7.06
2022-11-24T16:08:50.354Z,7.07
2022-11-24T16:11:16.771Z,7.10
2022-11-24T16:13:48.359Z,7.12
2022-11-24T16:16:18.760Z,7.09
2022-11-24T16:18:45.481Z,7.11
2022-11-24T16:21:12.226Z,7.09
2022-11-24T16:23:38.668Z,7.06
2022-11-24T16:26:05.459Z,7.04
2022-11-24T16:28:32.324Z,6.99
2022-11-24T16:30:58.781Z,6.95
2022-11-24T16:33:25.361Z,6.95
2022-11-24T16:35:51.825Z,6.92
2022-11-24T16:38:21.274Z,6.94
2022-11-24T16:40:52.537Z,6.94
2022-11-24T16:43:19.258Z,6.93
2022-11-24T16:45:45.948Z,6.94
2022-11-24T16:48:12.595Z,6.96
2022-11-24T16:50:39.014Z,6.95
2022-11-24T16:53:05.421Z,6.93
2022-11-24T16:55:31.830Z,6.96
2022-11-24T16:57:58.258Z,6.96
2022-11-24T17:00:24.712Z,6.96
2022-11-24T17:02:51.470Z,7.00
2022-11-24T17:05:17.898Z,7.04
2022-11-24T17:07:44.438Z,7.04
2022-11-24T17:10:10.973Z,7.06
2022-11-24T17:12:37.698Z,7.05
2022-11-24T17:18:22.250Z,7.06
2022-11-24T17:20:38.407Z,6.99
2022-11-24T17:23:04.829Z,6.97
2022-11-24T17:25:32.351Z,6.94
2022-11-24T17:27:58.825Z,6.95
2022-11-24T17:30:25.212Z,6.89
2022-11-24T17:32:56.646Z,6.88
2022-11-24T17:35:23.621Z,6.86
2022-11-24T17:37:50.035Z,6.87
2022-11-24T17:40:34.276Z,6.86
2022-11-24T17:43:01.554Z,6.86
2022-11-24T17:45:29.586Z,6.83
2022-11-24T17:47:58.463Z,6.81
2022-11-24T17:50:26.266Z,6.80
2022-11-24T17:52:53.452Z,6.82
2022-11-24T17:55:19.936Z,6.76
2022-11-24T17:57:46.376Z,6.77
2022-11-24T18:00:13.595Z,6.74
2022-11-24T18:02:40.157Z,6.71
2022-11-24T18:05:06.958Z,6.69
2022-11-24T18:07:36.230Z,6.70
2022-11-24T18:10:03.274Z,6.64
2022-11-24T18:12:29.649Z,6.62
2022-11-24T18:14:56.160Z,6.56
2022-11-24T18:17:22.640Z,6.55
2022-11-24T18:19:49.028Z,6.44
2022-11-24T18:22:15.503Z,6.33
2022-11-24T18:24:41.976Z,6.24
2022-11-24T18:27:08.393Z,6.16
2022-11-24T18:29:34.790Z,6.07
2022-11-24T18:32:01.307Z,6.04
2022-11-24T18:34:27.768Z,5.93
2022-11-24T18:36:54.279Z,5.86
2022-11-24T18:39:20.905Z,5.79
2022-11-24T18:41:47.597Z,5.75
2022-11-24T18:44:14.078Z,5.71
2022-11-24T18:46:40.454Z,5.73
2022-11-24T18:49:07.283Z,5.70
2022-11-24T18:51:33.993Z,5.66
2022-11-24T18:54:02.368Z,5.61
2022-11-24T18:56:29.154Z,5.55
2022-11-24T18:58:56.423Z,5.53
2022-11-24T19:01:25.469Z,5.50
2022-11-24T19:04:03.067Z,5.52
2022-11-24T19:06:39.662Z,5.53
2022-11-24T19:09:18.435Z,5.52
2022-11-24T19:11:46.190Z,5.55
2022-11-24T19:14:17.919Z,5.60
2022-11-24T19:16:44.863Z,5.61
2022-11-24T19:19:12.431Z,5.64
2022-11-24T19:21:40.116Z,5.63
2022-11-24T19:24:09.931Z,5.65
2022-11-24T19:26:36.975Z,5.68
2022-11-24T19:29:04.655Z,5.76
2022-11-24T19:31:31.532Z,5.77
2022-11-24T19:33:59.662Z,5.82
2022-11-24T19:36:26.326Z,5.83
2022-11-24T19:38:55.057Z,5.82
2022-11-24T19:41:22.840Z,5.84
2022-11-24T19:43:50.171Z,5.88
2022-11-24T19:46:18.552Z,5.94
2022-11-24T19:48:48.494Z,5.88
2022-11-24T19:51:17.740Z,5.88
2022-11-24T19:53:44.639Z,5.88
2022-11-24T19:56:17.517Z,5.89
2022-11-24T19:58:44.337Z,5.90
2022-11-24T20:01:11.954Z,5.90
2022-11-24T20:03:39.306Z,5.91
2022-11-24T20:06:07.427Z,5.95
2022-11-24T20:08:35.708Z,5.98
2022-11-24T20:11:10.510Z,5.95
2022-11-24T20:13:39.171Z,5.95
2022-11-24T20:16:11.710Z,5.90
2022-11-24T20:18:42.215Z,5.89
2022-11-24T20:21:20.422Z,5.89
2022-11-24T20:23:53.431Z,5.88
2022-11-24T20:26:22.823Z,5.87
2022-11-24T20:28:50.728Z,5.87
2022-11-24T20:31:21.059Z,5.84
2022-11-24T20:33:47.588Z,5.84
2022-11-24T20:36:17.253Z,5.81
2022-11-24T20:38:44.640Z,5.77
2022-11-24T20:41:20.464Z,5.72
2022-11-24T20:43:48.174Z,5.69
2022-11-24T20:46:20.326Z,5.67
2022-11-24T20:48:48.396Z,5.61
2022-11-24T20:51:24.291Z,5.61
2022-11-24T20:53:53.382Z,5.63
2022-11-24T20:56:23.330Z,5.61
2022-11-24T20:58:50.353Z,5.57
2022-11-24T21:01:22.051Z,5.56
2022-11-24T21:03:53.498Z,5.49
2022-11-24T21:06:20.134Z,5.48
2022-11-24T21:08:46.559Z,5.50
2022-11-24T21:11:13.825Z,5.49
2022-11-24T21:13:42.789Z,5.43
2022-11-24T21:16:13.473Z,5.42
2022-11-24T21:18:40.004Z,5.41
2022-11-24T21:21:06.879Z,5.37
2022-11-24T21:23:33.345Z,5.32
2022-11-24T21:26:05.209Z,5.30
2022-11-24T21:28:32.794Z,5.28
2022-11-24T21:31:06.499Z,5.30
2022-11-24T21:33:33.599Z,5.23
2022-11-24T21:36:04.915Z,5.15
2022-11-24T21:38:31.591Z,5.11
2022-11-24T21:41:02.191Z,5.07
2022-11-24T21:43:29.975Z,5.00
2022-11-24T21:46:17.201Z,4.93
2022-11-24T21:48:44.038Z,4.89
2022-11-24T21:51:15.658Z,4.84
2022-11-24T21:53:43.023Z,4.78
2022-11-24T21:56:17.801Z,4.76
2022-11-24T21:58:48.016Z,4.76
2022-11-24T22:01:16.146Z,4.79
2022-11-24T22:03:43.130Z,4.73
2022-11-24T22:06:09.910Z,4.70
2022-11-24T22:08:36.320Z,4.68
2022-11-24T22:11:08.348Z,4.71
2022-11-24T22:13:34.812Z,4.73
2022-11-24T22:16:02.385Z,4.71
2022-11-24T22:18:40.169Z,4.61
2022-11-24T22:21:08.286Z,4.55
2022-11-24T22:23:36.456Z,4.53
2022-11-24T22:26:05.790Z,4.51
2022-11-24T22:28:36.464Z,4.41
2022-11-24T22:31:07.991Z,4.40
2022-11-24T22:33:35.067Z,4.40
2022-11-24T22:36:02.200Z,4.37
2022-11-24T22:38:30.088Z,4.34
2022-11-24T22:41:04.131Z,4.23
2022-11-24T22:43:35.247Z,4.19
2022-11-24T22:46:11.274Z,4.09
2022-11-24T22:48:38.243Z,4.03
2022-11-24T22:51:12.036Z,3.97
2022-11-24T22:53:39.058Z,3.92
2022-11-24T22:56:09.375Z,3.84
2022-11-24T22:58:36.854Z,3.71
2022-11-24T23:01:12.509Z,3.67
2022-11-24T23:03:39.348Z,3.70
2022-11-24T23:06:09.791Z,3.77
2022-11-24T23:08:36.481Z,3.86
2022-11-24T23:11:05.916Z,3.92
2022-11-24T23:13:32.897Z,3.87
2022-11-24T23:16:04.200Z,3.90
2022-11-24T23:18:30.956Z,3.87
2022-11-24T23:21:04.456Z,3.88
2022-11-24T23:23:30.813Z,3.90
2022-11-24T23:26:00.311Z,3.92
2022-11-24T23:28:27.108Z,3.89
2022-11-24T23:30:56.394Z,3.86
2022-11-24T23:33:22.785Z,3.82
2022-11-24T23:35:49.238Z,3.80
2022-11-24T23:38:15.589Z,3.78
2022-11-24T23:40:41.992Z,3.75
2022-11-24T23:43:08.445Z,3.75
2022-11-24T23:45:34.884Z,3.74
2022-11-24T23:48:02.293Z,3.70
2022-11-24T23:50:28.990Z,3.65
2022-11-24T23:52:55.378Z,3.63
2022-11-24T23:55:21.818Z,3.53
2022-11-24T23:57:48.451Z,3.45
